Time,TemperatureF,DewpointF,PressureIn,WindDirection,WindDirectionDegrees,WindSpeedMPH,WindSpeedGustMPH,Humidity,HourlyPrecipIn,Conditions,Clouds,dailyrainin,SolarRadiationWatts/m^2,SoftwareType,DateUTC
2013-04-09 00:22:00,51.0,26.0,-100.00,WNW,294,15.0,30.0,38,0.00,,,0.00,0.000000,,2013-04-09 07:22:00,
2013-04-09 00:32:00,51.0,26.0,-100.00,WNW,294,15.0,30.0,38,0.00,,,0.00,0.000000,,2013-04-09 07:32:00,
2013-04-09 00:42:00,51.0,26.0,-100.00,WNW,294,15.0,30.0,38,0.00,,,0.00,0.000000,,2013-04-09 07:42:00,
2013-04-09 00:52:00,51.0,26.0,-100.00,WNW,294,15.0,30.0,38,0.00,,,0.00,0.000000,,2013-04-09 07:52:00,
2013-04-09 01:32:00,50.0,26.0,-100.00,WNW,300,19.0,32.0,39,0.00,,,0.00,0.000000,,2013-04-09 08:32:00,
2013-04-09 01:42:00,50.0,26.0,-100.00,WNW,300,19.0,32.0,39,0.00,,,0.00,0.000000,,2013-04-09 08:42:00,
2013-04-09 01:52:00,50.0,26.0,-100.00,WNW,300,19.0,32.0,39,0.00,,,0.00,0.000000,,2013-04-09 08:52:00,
2013-04-09 02:01:00,50.0,26.0,-100.00,WNW,300,19.0,32.0,39,0.00,,,0.00,0.000000,,2013-04-09 09:01:00,
2013-04-09 02:02:00,50.0,27.0,-100.00,WNW,301,17.0,34.0,40,0.00,,,0.00,0.000000,,2013-04-09 09:02:00,
2013-04-09 02:22:00,50.0,27.0,-100.00,WNW,301,17.0,34.0,40,0.00,,,0.00,0.000000,,2013-04-09 09:22:00,
2013-04-09 02:33:00,50.0,27.0,-100.00,WNW,301,17.0,34.0,40,0.00,,,0.00,0.000000,,2013-04-09 09:33:00,
2013-04-09 02:44:00,50.0,27.0,-100.00,WNW,301,17.0,34.0,40,0.00,,,0.00,0.000000,,2013-04-09 09:44:00,
2013-04-09 02:52:00,50.0,27.0,-100.00,WNW,301,17.0,34.0,40,0.00,,,0.00,0.000000,,2013-04-09 09:52:00,
2013-04-09 03:02:00,49.0,26.0,-100.00,WNW,297,19.0,32.0,41,0.00,,,0.00,0.000000,,2013-04-09 10:02:00,
2013-04-09 03:24:00,49.0,26.0,-100.00,WNW,297,19.0,32.0,41,0.00,,,0.00,0.000000,,2013-04-09 10:24:00,
2013-04-09 03:33:00,49.0,26.0,-100.00,WNW,297,19.0,32.0,41,0.00,,,0.00,0.000000,,2013-04-09 10:33:00,
2013-04-09 03:43:00,49.0,26.0,-100.00,WNW,297,19.0,32.0,41,0.00,,,0.00,0.000000,,2013-04-09 10:43:00,
2013-04-09 03:53:00,49.0,26.0,-100.00,WNW,297,19.0,32.0,41,0.00,,,0.00,0.000000,,2013-04-09 10:53:00,
2013-04-09 04:22:00,49.0,26.0,-100.00,WNW,298,17.0,44.0,41,0.00,,,0.00,0.000000,,2013-04-09 11:22:00,
2013-04-09 04:32:00,49.0,26.0,-100.00,WNW,298,17.0,44.0,41,0.00,,,0.00,0.000000,,2013-04-09 11:32:00,
2013-04-09 04:42:00,49.0,26.0,-100.00,WNW,298,17.0,44.0,41,0.00,,,0.00,0.000000,,2013-04-09 11:42:00,
2013-04-09 04:52:00,49.0,26.0,-100.00,WNW,298,17.0,44.0,41,0.00,,,0.00,0.000000,,2013-04-09 11:52:00,
2013-04-09 05:01:00,49.0,26.0,-100.00,WNW,298,17.0,44.0,41,0.00,,,0.00,0.000000,,2013-04-09 12:01:00,
2013-04-09 05:02:00,48.0,25.0,-100.00,WNW,294,0.0,37.0,41,0.00,,,0.00,0.000000,,2013-04-09 12:02:00,
2013-04-09 05:22:00,48.0,25.0,-100.00,WNW,294,0.0,37.0,41,0.00,,,0.00,0.000000,,2013-04-09 12:22:00,
2013-04-09 05:33:00,48.0,25.0,-100.00,WNW,294,0.0,37.0,41,0.00,,,0.00,0.000000,,2013-04-09 12:33:00,
2013-04-09 05:43:00,48.0,25.0,-100.00,WNW,294,0.0,37.0,41,0.00,,,0.00,0.000000,,2013-04-09 12:43:00,
2013-04-09 05:53:00,48.0,25.0,-100.00,WNW,294,0.0,37.0,41,0.00,,,0.00,0.000000,,2013-04-09 12:53:00,
2013-04-09 06:02:00,48.0,26.0,-100.00,WNW,297,0.0,0.0,42,0.00,,,0.00,0.000000,,2013-04-09 13:02:00,
2013-04-09 06:33:00,48.0,26.0,-100.00,WNW,297,0.0,0.0,42,0.00,,,0.00,0.000000,,2013-04-09 13:33:00,
2013-04-09 06:43:00,48.0,26.0,-100.00,WNW,297,0.0,0.0,42,0.00,,,0.00,0.000000,,2013-04-09 13:43:00,
2013-04-09 06:53:00,48.0,26.0,-100.00,WNW,297,0.0,0.0,42,0.00,,,0.00,0.000000,,2013-04-09 13:53:00,
2013-04-09 07:33:00,48.0,26.0,-100.00,WNW,296,0.0,0.0,42,0.00,,,0.00,5.000000,,2013-04-09 14:33:00,
2013-04-09 07:43:00,48.0,26.0,-100.00,WNW,296,0.0,0.0,42,0.00,,,0.00,5.000000,,2013-04-09 14:43:00,
2013-04-09 07:52:00,48.0,26.0,-100.00,WNW,296,0.0,0.0,42,0.00,,,0.00,5.000000,,2013-04-09 14:52:00,
2013-04-09 08:01:00,48.0,26.0,-100.00,WNW,296,0.0,0.0,42,0.00,,,0.00,5.000000,,2013-04-09 15:01:00,
2013-04-09 08:02:00,50.0,27.0,-100.00,WNW,301,0.0,0.0,41,0.00,,,0.00,127.000000,,2013-04-09 15:02:00,
2013-04-09 08:34:00,50.0,27.0,-100.00,WNW,301,0.0,0.0,41,0.00,,,0.00,127.000000,,2013-04-09 15:34:00,
2013-04-09 08:43:00,50.0,27.0,-100.00,WNW,301,0.0,0.0,41,0.00,,,0.00,127.000000,,2013-04-09 15:43:00,
2013-04-09 08:53:00,50.0,27.0,-100.00,WNW,301,0.0,0.0,41,0.00,,,0.00,127.000000,,2013-04-09 15:53:00,
2013-04-09 09:02:00,52.0,28.0,-100.00,WNW,296,0.0,0.0,39,0.00,,,0.00,336.000000,,2013-04-09 16:02:00,
2013-04-09 09:34:00,52.0,28.0,-100.00,WNW,296,0.0,0.0,39,0.00,,,0.00,336.000000,,2013-04-09 16:34:00,
2013-04-09 09:42:00,52.0,28.0,-100.00,WNW,296,0.0,0.0,39,0.00,,,0.00,336.000000,,2013-04-09 16:42:00,
2013-04-09 09:53:00,52.0,28.0,-100.00,WNW,296,0.0,0.0,39,0.00,,,0.00,336.000000,,2013-04-09 16:53:00,
2013-04-09 10:02:00,54.0,28.0,-100.00,WNW,293,0.0,0.0,37,0.00,,,0.00,543.000000,,2013-04-09 17:02:00,
2013-04-09 10:33:00,54.0,28.0,-100.00,WNW,293,0.0,0.0,37,0.00,,,0.00,543.000000,,2013-04-09 17:33:00,
2013-04-09 10:43:00,54.0,28.0,-100.00,WNW,293,0.0,0.0,37,0.00,,,0.00,543.000000,,2013-04-09 17:43:00,
2013-04-09 10:53:00,54.0,28.0,-100.00,WNW,293,0.0,0.0,37,0.00,,,0.00,543.000000,,2013-04-09 17:53:00,
2013-04-09 11:02:00,56.0,28.0,-100.00,WNW,292,0.0,0.0,34,0.00,,,0.00,717.000000,,2013-04-09 18:02:00,
2013-04-09 11:33:00,56.0,28.0,-100.00,WNW,292,0.0,0.0,34,0.00,,,0.00,717.000000,,2013-04-09 18:33:00,
2013-04-09 11:43:00,56.0,28.0,-100.00,WNW,292,0.0,0.0,34,0.00,,,0.00,717.000000,,2013-04-09 18:43:00,
2013-04-09 11:53:00,56.0,28.0,-100.00,WNW,292,0.0,0.0,34,0.00,,,0.00,717.000000,,2013-04-09 18:53:00,
2013-04-09 12:02:00,60.0,31.0,-100.00,NW,313,9.0,31.0,33,0.00,,,0.00,854.000000,,2013-04-09 19:02:00,
2013-04-09 12:52:00,60.0,31.0,-100.00,NW,313,9.0,31.0,33,0.00,,,0.00,854.000000,,2013-04-09 19:52:00,
2013-04-09 13:02:00,62.0,32.0,-100.00,WNW,301,10.0,28.0,32,0.00,,,0.00,930.000000,,2013-04-09 20:02:00,
2013-04-09 13:34:00,62.0,32.0,-100.00,WNW,301,10.0,28.0,32,0.00,,,0.00,930.000000,,2013-04-09 20:34:00,
2013-04-09 13:43:00,62.0,32.0,-100.00,WNW,301,10.0,28.0,32,0.00,,,0.00,930.000000,,2013-04-09 20:43:00,
2013-04-09 13:52:00,62.0,32.0,-100.00,WNW,301,10.0,28.0,32,0.00,,,0.00,930.000000,,2013-04-09 20:52:00,
2013-04-09 14:02:00,65.0,30.0,-100.00,North,350,7.0,23.0,27,0.00,,,0.00,942.000000,,2013-04-09 21:02:00,
2013-04-09 14:33:00,65.0,30.0,-100.00,North,350,7.0,23.0,27,0.00,,,0.00,942.000000,,2013-04-09 21:33:00,
2013-04-09 14:42:00,65.0,30.0,-100.00,North,350,7.0,23.0,27,0.00,,,0.00,942.000000,,2013-04-09 21:42:00,
2013-04-09 14:53:00,65.0,30.0,-100.00,North,350,7.0,23.0,27,0.00,,,0.00,942.000000,,2013-04-09 21:53:00,
2013-04-09 15:02:00,65.0,27.0,-100.00,WNW,294,11.0,26.0,24,0.00,,,0.00,890.000000,,2013-04-09 22:02:00,
2013-04-09 15:23:00,65.0,27.0,-100.00,WNW,294,11.0,26.0,24,0.00,,,0.00,890.000000,,2013-04-09 22:23:00,
2013-04-09 15:33:00,65.0,27.0,-100.00,WNW,294,11.0,26.0,24,0.00,,,0.00,890.000000,,2013-04-09 22:33:00,
2013-04-09 15:42:00,65.0,27.0,-100.00,WNW,294,11.0,26.0,24,0.00,,,0.00,890.000000,,2013-04-09 22:42:00,
2013-04-09 15:53:00,65.0,27.0,-100.00,WNW,294,11.0,26.0,24,0.00,,,0.00,890.000000,,2013-04-09 22:53:00,
2013-04-09 16:02:00,66.0,27.0,-100.00,NE,39,10.0,23.0,23,0.00,,,0.00,777.000000,,2013-04-09 23:02:00,
2013-04-09 16:23:00,66.0,27.0,-100.00,NE,39,10.0,23.0,23,0.00,,,0.00,777.000000,,2013-04-09 23:23:00,
2013-04-09 16:33:00,66.0,27.0,-100.00,NE,39,10.0,23.0,23,0.00,,,0.00,777.000000,,2013-04-09 23:33:00,
2013-04-09 16:42:00,66.0,27.0,-100.00,NE,39,10.0,23.0,23,0.00,,,0.00,777.000000,,2013-04-09 23:42:00,
2013-04-09 16:53:00,66.0,27.0,-100.00,NE,39,10.0,23.0,23,0.00,,,0.00,777.000000,,2013-04-09 23:53:00,
2013-04-09 17:33:00,67.0,26.0,-100.00,WNW,303,7.0,21.0,21,0.00,,,0.00,613.000000,,2013-04-10 00:33:00,
2013-04-09 17:42:00,67.0,26.0,-100.00,WNW,303,7.0,21.0,21,0.00,,,0.00,613.000000,,2013-04-10 00:42:00,
2013-04-09 17:52:00,67.0,26.0,-100.00,WNW,303,7.0,21.0,21,0.00,,,0.00,613.000000,,2013-04-10 00:52:00,
2013-04-09 18:01:00,67.0,26.0,-100.00,WNW,303,7.0,21.0,21,0.00,,,0.00,613.000000,,2013-04-10 01:01:00,
2013-04-09 18:23:00,66.0,25.0,-100.00,WNW,287,9.0,20.0,21,0.00,,,0.00,416.000000,,2013-04-10 01:23:00,
2013-04-09 18:33:00,66.0,25.0,-100.00,WNW,287,9.0,20.0,21,0.00,,,0.00,416.000000,,2013-04-10 01:33:00,
2013-04-09 18:43:00,66.0,25.0,-100.00,WNW,287,9.0,20.0,21,0.00,,,0.00,416.000000,,2013-04-10 01:43:00,
2013-04-09 18:52:00,66.0,25.0,-100.00,WNW,287,9.0,20.0,21,0.00,,,0.00,416.000000,,2013-04-10 01:52:00,
2013-04-09 19:01:00,66.0,25.0,-100.00,WNW,287,9.0,20.0,21,0.00,,,0.00,416.000000,,2013-04-10 02:01:00,
2013-04-09 19:02:00,64.0,25.0,-100.00,WNW,302,13.0,23.0,23,0.00,,,0.00,196.000000,,2013-04-10 02:02:00,
2013-04-09 19:33:00,64.0,25.0,-100.00,WNW,302,13.0,23.0,23,0.00,,,0.00,196.000000,,2013-04-10 02:33:00,
2013-04-09 19:43:00,64.0,25.0,-100.00,WNW,302,13.0,23.0,23,0.00,,,0.00,196.000000,,2013-04-10 02:43:00,
2013-04-09 19:52:00,64.0,25.0,-100.00,WNW,302,13.0,23.0,23,0.00,,,0.00,196.000000,,2013-04-10 02:52:00,
2013-04-09 20:02:00,62.0,25.0,-100.00,NW,312,14.0,27.0,24,0.00,,,0.00,27.000000,,2013-04-10 03:02:00,
2013-04-09 20:22:00,62.0,25.0,-100.00,NW,312,14.0,27.0,24,0.00,,,0.00,27.000000,,2013-04-10 03:22:00,
2013-04-09 20:33:00,62.0,25.0,-100.00,NW,312,14.0,27.0,24,0.00,,,0.00,27.000000,,2013-04-10 03:33:00,
2013-04-09 20:43:00,62.0,25.0,-100.00,NW,312,14.0,27.0,24,0.00,,,0.00,27.000000,,2013-04-10 03:43:00,
2013-04-09 20:52:00,62.0,25.0,-100.00,NW,312,14.0,27.0,24,0.00,,,0.00,27.000000,,2013-04-10 03:52:00,
2013-04-09 21:02:00,62.0,25.0,-100.00,WNW,301,15.0,27.0,24,0.00,,,0.00,0.000000,,2013-04-10 04:02:00,
2013-04-09 21:23:00,62.0,25.0,-100.00,WNW,301,15.0,27.0,24,0.00,,,0.00,0.000000,,2013-04-10 04:23:00,
2013-04-09 21:33:00,62.0,25.0,-100.00,WNW,301,15.0,27.0,24,0.00,,,0.00,0.000000,,2013-04-10 04:33:00,
2013-04-09 21:43:00,62.0,25.0,-100.00,WNW,301,15.0,27.0,24,0.00,,,0.00,0.000000,,2013-04-10 04:43:00,
2013-04-09 21:53:00,62.0,25.0,-100.00,WNW,301,15.0,27.0,24,0.00,,,0.00,0.000000,,2013-04-10 04:53:00,
2013-04-09 22:02:00,62.0,27.0,-100.00,WNW,292,13.0,29.0,26,0.00,,,0.00,0.000000,,2013-04-10 05:02:00,
2013-04-09 22:23:00,62.0,27.0,-100.00,WNW,292,13.0,29.0,26,0.00,,,0.00,0.000000,,2013-04-10 05:23:00,
2013-04-09 22:33:00,62.0,27.0,-100.00,WNW,292,13.0,29.0,26,0.00,,,0.00,0.000000,,2013-04-10 05:33:00,
2013-04-09 22:42:00,62.0,27.0,-100.00,WNW,292,13.0,29.0,26,0.00,,,0.00,0.000000,,2013-04-10 05:42:00,
2013-04-09 22:53:00,62.0,27.0,-100.00,WNW,292,13.0,29.0,26,0.00,,,0.00,0.000000,,2013-04-10 05:53:00,
2013-04-09 23:02:00,62.0,29.0,-100.00,WNW,293,14.0,23.0,29,0.00,,,0.00,0.000000,,2013-04-10 06:02:00,
2013-04-09 23:22:00,62.0,29.0,-100.00,WNW,293,14.0,23.0,29,0.00,,,0.00,0.000000,,2013-04-10 06:22:00,
2013-04-09 23:32:00,62.0,29.0,-100.00,WNW,293,14.0,23.0,29,0.00,,,0.00,0.000000,,2013-04-10 06:32:00,
2013-04-09 23:42:00,62.0,29.0,-100.00,WNW,293,14.0,23.0,29,0.00,,,0.00,0.000000,,2013-04-10 06:42:00,
2013-04-09 23:52:00,62.0,29.0,-100.00,WNW,293,14.0,23.0,29,0.00,,,0.00,0.000000,,2013-04-10 06:52:00,